Ningbo Seal — VRJD3 — position and weather

sailwx.info

Track history (hours):
 
Tides and Currents Weather Stations Pressure Air Temp Water Temp Dewpoint Dewpoint Depression Visibility Wind Speed Wind Dir Waves Ship Positions

Ningbo Seal

Last reported at 2017-Nov-16 12:29 UTC. Time now 2017-Nov-23 17:05 UTC.
Position N 01°16' E 104°08'.

Length 224 m; draft 6.9 m.

Type: Cargo ship. MMSI: 477628100.

Date/timePositionNaut miles runAvg speedWind from/ knotsBaromVisibWave heightAir tempDewpointWater temp
2017-Nov-16 12:29N 01°16' E 104°08'510.0
2017-Nov-16 12:00N 01°17' E 104°03'3 5.7
2017-Nov-16 11:29N 01°17' E 104°00'0 0.0
2017-Nov-16 08:42N 01°17' E 104°00'0 0.0
2017-Nov-16 08:30N 01°17' E 104°00'0 0.0
2017-Nov-16 08:00N 01°17' E 104°00'0 0.0
2017-Nov-16 07:30N 01°17' E 104°00'0 0.1
2017-Nov-16 07:00N 01°17' E 104°00'0 0.2
2017-Nov-16 06:30N 01°18' E 104°00'0 0.0
2017-Nov-16 06:00N 01°18' E 104°00'0 0.0
2017-Nov-16 05:30N 01°18' E 104°00'0 0.0
2017-Nov-16 05:00N 01°18' E 104°00'0 0.0
2017-Nov-16 04:30N 01°18' E 104°00'0 0.2
2017-Nov-16 04:00N 01°18' E 104°00'0 0.2
2017-Nov-16 03:30N 01°18' E 104°00'0 0.1
2017-Nov-16 02:59N 01°17' E 104°00'0 0.1
2017-Nov-16 02:27N 01°17' E 104°00'0 0.0
2017-Nov-16 01:59N 01°17' E 104°00'0 0.0
2017-Nov-16 01:30N 01°17' E 104°00'0 0.0
2017-Nov-16 01:00N 01°17' E 104°00'0 0.0
2017-Nov-16 00:29N 01°17' E 104°00'0 0.0
2017-Nov-15 23:57N 01°17' E 104°00'0 0.1
2017-Nov-15 23:28N 01°17' E 104°00'0 0.0
2017-Nov-15 23:00N 01°17' E 104°00'0 0.1
2017-Nov-15 22:30N 01°17' E 104°00'2 3.1
2017-Nov-15 21:59N 01°17' E 103°59'3 5.4
2017-Nov-15 21:25N 01°15' E 103°56'1 2.1
2017-Nov-15 21:00N 01°14' E 103°56'2 4.9
2017-Nov-15 20:30N 01°12' E 103°54'4 7.4
2017-Nov-15 20:00N 01°11' E 103°51'4 9.1
2017-Nov-15 19:30N 01°09' E 103°47'612.0
2017-Nov-15 19:00N 01°05' E 103°42'510.3
2017-Nov-15 18:30N 01°04' E 103°37'610.8
2017-Nov-15 17:59N 01°07' E 103°33'510.7
2017-Nov-15 17:29N 01°13' E 103°32'3 6.7
2017-Nov-15 17:00N 01°16' E 103°33'4 8.5
2017-Nov-15 16:30N 01°20' E 103°33'0 0.3
2017-Nov-15 15:49N 01°20' E 103°33'0 0.0
2017-Nov-15 15:13N 01°20' E 103°33'0 0.0
2017-Nov-15 14:52N 01°20' E 103°33'0 0.0
2017-Nov-15 14:28N 01°20' E 103°33'0 0.0
2017-Nov-15 13:58N 01°20' E 103°33'0 0.0
2017-Nov-15 13:25N 01°20' E 103°33'0 0.0
2017-Nov-15 12:10N 01°20' E 103°33'0 0.0
2017-Nov-15 11:58N 01°20' E 103°33'0 0.0
2017-Nov-15 11:19N 01°20' E 103°33'0 0.0
2017-Nov-15 09:37N 01°20' E 103°33'0 0.0
2017-Nov-15 08:58N 01°20' E 103°33'0 0.0
2017-Nov-15 08:22N 01°20' E 103°33'0 0.0
2017-Nov-15 07:40N 01°20' E 103°33'0 0.0
2017-Nov-15 07:28N 01°20' E 103°33'0 0.0
2017-Nov-15 06:58N 01°20' E 103°33'0 0.0
2017-Nov-15 06:28N 01°20' E 103°33'0 0.0
2017-Nov-15 05:58N 01°20' E 103°33'0 0.0
2017-Nov-15 05:28N 01°20' E 103°33'0 0.0
2017-Nov-15 04:52N 01°20' E 103°33'0 0.0
2017-Nov-15 04:28N 01°20' E 103°33'0 0.0
2017-Nov-15 03:58N 01°20' E 103°33'0 0.0
2017-Nov-15 03:22N 01°20' E 103°33'0 0.0
2017-Nov-15 02:58N 01°20' E 103°33'0 0.0
2017-Nov-15 02:22N 01°20' E 103°33'0 0.0
2017-Nov-15 01:58N 01°20' E 103°33'0 0.0
2017-Nov-15 01:22N 01°20' E 103°33'0 0.0
2017-Nov-15 00:55N 01°20' E 103°33'0 0.0
2017-Nov-15 00:19N 01°20' E 103°33'0 0.0
2017-Nov-14 23:58N 01°20' E 103°33'0 0.0
2017-Nov-14 23:25N 01°20' E 103°33'0 0.0
2017-Nov-14 22:58N 01°20' E 103°33'0 0.0
2017-Nov-14 22:28N 01°20' E 103°33'0 0.0
2017-Nov-14 21:58N 01°20' E 103°33'0 0.0
2017-Nov-14 21:16N 01°20' E 103°33'0 0.0
2017-Nov-14 20:58N 01°20' E 103°33'0 0.0
2017-Nov-14 20:28N 01°20' E 103°33'0 0.0
2017-Nov-14 19:34N 01°20' E 103°33'0 0.0
2017-Nov-14 19:28N 01°20' E 103°33'0 0.0
2017-Nov-14 18:58N 01°20' E 103°33'0 0.0
2017-Nov-14 18:28N 01°20' E 103°33'0 0.0
2017-Nov-14 17:55N 01°20' E 103°33'0 0.0
2017-Nov-14 17:28N 01°20' E 103°33'0 0.0
2017-Nov-14 16:58N 01°20' E 103°33'0 0.0
2017-Nov-14 16:25N 01°20' E 103°33'0 0.0
2017-Nov-14 15:58N 01°20' E 103°33'0 0.0
2017-Nov-14 15:19N 01°20' E 103°33'0 0.0
2017-Nov-14 14:52N 01°20' E 103°33'0 0.0
2017-Nov-14 14:28N 01°20' E 103°33'0 0.0
2017-Nov-14 13:49N 01°20' E 103°33'0 0.0
2017-Nov-14 13:04N 01°20' E 103°33'0 0.0
2017-Nov-14 12:46N 01°20' E 103°33'0 0.0
2017-Nov-14 12:28N 01°20' E 103°33'0 0.0
2017-Nov-14 11:40N 01°20' E 103°33'0 0.0
2017-Nov-14 11:13N 01°20' E 103°33'0 0.0
2017-Nov-14 10:52N 01°20' E 103°33'0 0.0
2017-Nov-14 09:34N 01°20' E 103°33'0 0.0
2017-Nov-14 09:19N 01°20' E 103°33'0 0.0
2017-Nov-14 08:31N 01°20' E 103°33'0 0.0
2017-Nov-14 08:28N 01°20' E 103°33'0 0.0
2017-Nov-14 07:16N 01°20' E 103°33'0 0.0
2017-Nov-14 06:19N 01°20' E 103°33'0 0.0
2017-Nov-14 05:52N 01°20' E 103°33'0 0.0
2017-Nov-14 05:22N 01°20' E 103°33'0 0.0
2017-Nov-14 04:58N 01°20' E 103°33'0 0.0
2017-Nov-14 04:22N 01°20' E 103°33'0 0.0
2017-Nov-14 03:58N 01°20' E 103°33'0 0.0
2017-Nov-14 03:22N 01°20' E 103°33'0 0.0
2017-Nov-14 02:58N 01°20' E 103°33'0 0.0
2017-Nov-14 02:25N 01°20' E 103°33'0 0.0
2017-Nov-14 01:43N 01°20' E 103°33'0 0.0
2017-Nov-14 01:28N 01°20' E 103°33'0 0.0
2017-Nov-14 00:58N 01°20' E 103°33'0 0.0
2017-Nov-14 00:25N 01°20' E 103°33'0 0.0
2017-Nov-13 23:52N 01°20' E 103°33'0 0.0
2017-Nov-13 23:19N 01°20' E 103°33'0 0.0
2017-Nov-13 21:49N 01°20' E 103°33'0 0.0
2017-Nov-13 01:58N 01°20' E 103°33'0 0.0
2017-Nov-13 01:25N 01°20' E 103°33'0 0.0
2017-Nov-13 00:58N 01°20' E 103°33'0 0.0
2017-Nov-13 00:25N 01°20' E 103°33'0 0.0
2017-Nov-12 23:52N 01°20' E 103°33'0 0.0
2017-Nov-12 23:25N 01°20' E 103°33'0 0.0
2017-Nov-12 22:58N 01°20' E 103°33'0 0.0
2017-Nov-12 22:16N 01°20' E 103°33'0 0.0
2017-Nov-12 21:58N 01°20' E 103°33'0 0.0
2017-Nov-12 21:19N 01°20' E 103°33'0 0.0
2017-Nov-12 20:52N 01°20' E 103°33'0 0.0
2017-Nov-12 20:19N 01°20' E 103°33'0 0.0
2017-Nov-12 19:58N 01°20' E 103°33'0 0.0
2017-Nov-12 19:28N 01°20' E 103°33'0 0.0
2017-Nov-12 18:58N 01°20' E 103°33'0 0.0
2017-Nov-12 18:28N 01°20' E 103°33'0 0.0
2017-Nov-12 17:46N 01°20' E 103°33'0 0.0
2017-Nov-12 17:01N 01°20' E 103°33'0 0.0
2017-Nov-12 16:55N 01°20' E 103°33'0 0.0
2017-Nov-12 16:22N 01°20' E 103°33'0 0.0
2017-Nov-12 15:52N 01°20' E 103°33'0 0.0
2017-Nov-12 15:25N 01°20' E 103°33'0 0.0
2017-Nov-12 14:55N 01°20' E 103°33'0 0.0
2017-Nov-12 14:28N 01°20' E 103°33'0 0.0
2017-Nov-12 13:58N 01°20' E 103°33'0 0.0
2017-Nov-12 13:25N 01°20' E 103°33'0 0.0
2017-Nov-12 12:55N 01°20' E 103°33'0 0.0
2017-Nov-12 12:19N 01°20' E 103°33'0 0.0
2017-Nov-12 11:58N 01°20' E 103°33'0 0.0
2017-Nov-12 10:52N 01°20' E 103°33'0 0.0
2017-Nov-12 10:19N 01°20' E 103°33'0 0.0
2017-Nov-12 09:25N 01°20' E 103°33'0 0.0
2017-Nov-12 08:58N 01°20' E 103°33'0 0.0
2017-Nov-12 08:16N 01°20' E 103°33'0 0.0
2017-Nov-12 07:52N 01°20' E 103°33'0 0.0
2017-Nov-12 07:28N 01°20' E 103°33'0 0.0
2017-Nov-12 06:55N 01°20' E 103°33'0 0.0
2017-Nov-12 06:22N 01°20' E 103°33'0 0.0
2017-Nov-12 05:49N 01°20' E 103°33'0 0.0
2017-Nov-12 05:28N 01°20' E 103°33'0 0.0
2017-Nov-12 04:52N 01°20' E 103°33'0 0.0
2017-Nov-12 04:13N 01°20' E 103°33'0 0.0
2017-Nov-12 03:58N 01°20' E 103°33'0 0.0
2017-Nov-12 03:25N 01°20' E 103°33'0 0.0
2017-Nov-12 02:58N 01°20' E 103°33'0 0.0
2017-Nov-12 02:22N 01°20' E 103°33'0 0.0
2017-Nov-12 01:49N 01°20' E 103°33'0 0.0
2017-Nov-12 01:28N 01°20' E 103°33'0 0.0
2017-Nov-12 00:55N 01°20' E 103°33'0 0.2
2017-Nov-12 00:30N 01°20' E 103°33'2 3.1
2017-Nov-12 00:00N 01°18' E 103°33'4 8.5
2017-Nov-11 23:30N 01°15' E 103°32'3 5.3
2017-Nov-11 22:58N 01°15' E 103°29'0 0.6
2017-Nov-11 22:20N 01°15' E 103°29'0 0.1
2017-Nov-11 21:59N 01°15' E 103°29'0 0.0
2017-Nov-11 21:29N 01°15' E 103°29'0 0.1
2017-Nov-11 20:38N 01°15' E 103°29'0 0.1
2017-Nov-11 20:29N 01°15' E 103°29'0 0.1
2017-Nov-11 19:23N 01°15' E 103°29'0 0.3
2017-Nov-11 18:59N 01°15' E 103°28'0 0.1
2017-Nov-11 18:11N 01°15' E 103°28'0 0.0
2017-Nov-11 17:56N 01°15' E 103°28'0 0.0
2017-Nov-11 17:23N 01°15' E 103°28'0 0.0
2017-Nov-11 16:56N 01°15' E 103°28'0 0.0
2017-Nov-11 16:08N 01°15' E 103°28'0 0.0
2017-Nov-11 15:56N 01°15' E 103°28'0 0.0
2017-Nov-11 15:23N 01°15' E 103°28'0 0.0
2017-Nov-11 14:50N 01°15' E 103°28'0 0.0
2017-Nov-11 14:23N 01°15' E 103°28'0 0.0
2017-Nov-11 13:50N 01°15' E 103°28'0 0.0
2017-Nov-11 13:29N 01°15' E 103°28'0 0.0
2017-Nov-11 11:56N 01°15' E 103°28'0 0.0
2017-Nov-11 11:17N 01°15' E 103°28'0 0.0
2017-Nov-11 10:35N 01°15' E 103°28'0 0.0
2017-Nov-11 10:26N 01°15' E 103°28'0 0.0
2017-Nov-11 08:56N 01°15' E 103°28'0 0.0
2017-Nov-11 08:23N 01°15' E 103°28'0 0.0
2017-Nov-11 07:56N 01°15' E 103°28'0 0.1
2017-Nov-11 07:23N 01°15' E 103°28'0 0.1
2017-Nov-11 06:53N 01°15' E 103°28'0 0.0
2017-Nov-11 06:29N 01°15' E 103°28'0 0.1
2017-Nov-11 05:47N 01°15' E 103°28'0 0.2
2017-Nov-11 05:29N 01°15' E 103°28'0 0.0
2017-Nov-11 04:44N 01°15' E 103°28'0 0.0
2017-Nov-11 04:23N 01°15' E 103°28'0 0.0
2017-Nov-11 03:53N 01°15' E 103°28'0 0.0
2017-Nov-11 03:14N 01°15' E 103°28'0 0.1
2017-Nov-11 02:56N 01°15' E 103°28'0 0.0
2017-Nov-11 02:23N 01°15' E 103°28'0 0.0
2017-Nov-11 01:44N 01°15' E 103°28'0 0.0
2017-Nov-11 01:20N 01°15' E 103°28'0 0.2
2017-Nov-11 00:53N 01°15' E 103°28'0 0.1
2017-Nov-11 00:26N 01°15' E 103°28'0 0.2
2017-Nov-10 23:53N 01°15' E 103°29'0 0.2
2017-Nov-10 23:29N 01°15' E 103°29'0 0.1
2017-Nov-10 22:56N 01°15' E 103°29'0 0.1
2017-Nov-10 22:17N 01°15' E 103°29'0 0.0
2017-Nov-10 21:56N 01°15' E 103°29'0 0.0
2017-Nov-10 21:11N 01°15' E 103°29'0 0.1
2017-Nov-10 20:56N 01°15' E 103°29'0 0.1
2017-Nov-10 20:20N 01°15' E 103°29'0 0.0
2017-Nov-10 19:44N 01°15' E 103°29'0 0.1
2017-Nov-10 19:14N 01°15' E 103°29'0 0.2
2017-Nov-10 18:02N 01°15' E 103°29'0 0.2
2017-Nov-10 17:56N 01°15' E 103°29'0 0.1
2017-Nov-10 17:29N 01°15' E 103°28'0 0.0
2017-Nov-10 16:50N 01°15' E 103°28'0 0.0
2017-Nov-10 16:29N 01°15' E 103°28'0 0.1
2017-Nov-10 15:53N 01°15' E 103°28'0 0.1
2017-Nov-10 15:26N 01°15' E 103°28'0 0.1
2017-Nov-10 14:53N 01°15' E 103°28'0 0.2
2017-Nov-10 14:29N 01°15' E 103°28'0 0.0
2017-Nov-10 13:50N 01°15' E 103°28'0 0.0
2017-Nov-10 12:56N 01°15' E 103°28'0 0.0
2017-Nov-10 12:17N 01°15' E 103°28'0 0.0
2017-Nov-10 11:59N 01°15' E 103°28'0 0.1
2017-Nov-10 08:02N 01°15' E 103°29'0 0.0
2017-Nov-10 07:32N 01°15' E 103°29'0 0.1
2017-Nov-10 04:50N 01°15' E 103°28'0 0.0
2017-Nov-10 04:23N 01°15' E 103°28'0 0.0
2017-Nov-10 02:21N 01°15' E 103°28'0 0.0
2017-Nov-10 01:38N 01°15' E 103°28'0 0.0
2017-Nov-10 01:26N 01°15' E 103°28'0 0.0
2017-Nov-10 00:56N 01°15' E 103°28'0 0.0
2017-Nov-10 00:29N 01°15' E 103°28'0 0.0
2017-Nov-09 23:59N 01°15' E 103°28'0 0.2
2017-Nov-09 22:44N 01°15' E 103°29'0 0.2
2017-Nov-09 22:26N 01°15' E 103°29'0 0.1
2017-Nov-09 21:53N 01°15' E 103°29'0 0.1
2017-Nov-09 21:26N 01°15' E 103°29'0 0.1
2017-Nov-09 20:44N 01°15' E 103°29'0 0.1
2017-Nov-09 20:26N 01°15' E 103°29'0 0.1
2017-Nov-09 19:56N 01°15' E 103°29'0 0.1
2017-Nov-09 19:17N 01°15' E 103°29'0 0.1
2017-Nov-09 18:47N 01°15' E 103°29'0 0.2
2017-Nov-09 18:23N 01°15' E 103°29'0 0.0
2017-Nov-09 17:53N 01°15' E 103°29'0 0.0
2017-Nov-09 17:29N 01°15' E 103°29'0 0.2
2017-Nov-09 16:53N 01°15' E 103°29'0 0.4
2017-Nov-09 16:30N 01°15' E 103°28'0 0.2
2017-Nov-09 15:50N 01°15' E 103°28'0 0.0
2017-Nov-09 15:29N 01°15' E 103°28'0 0.0
2017-Nov-09 14:47N 01°15' E 103°28'0 0.1
2017-Nov-09 14:26N 01°15' E 103°28'0 0.0
2017-Nov-09 13:29N 01°15' E 103°28'0 0.1
2017-Nov-09 12:59N 01°15' E 103°28'0 0.1
2017-Nov-09 12:26N 01°15' E 103°28'0 0.1
2017-Nov-09 11:53N 01°15' E 103°28'0 0.1
2017-Nov-09 11:17N 01°15' E 103°28'0 0.1
2017-Nov-09 10:50N 01°15' E 103°28'0 0.1
2017-Nov-09 10:26N 01°15' E 103°28'0 0.2
2017-Nov-09 09:53N 01°15' E 103°29'0 0.1
2017-Nov-09 09:11N 01°15' E 103°29'0 0.1
2017-Nov-09 08:41N 01°15' E 103°29'0 0.0
2017-Nov-09 08:26N 01°15' E 103°29'0 0.1
2017-Nov-09 07:47N 01°15' E 103°29'0 0.1
2017-Nov-09 07:12N 01°15' E 103°29'0 0.0
2017-Nov-09 06:50N 01°15' E 103°29'0 0.0
2017-Nov-09 05:53N 01°15' E 103°29'0 0.2
2017-Nov-09 05:08N 01°15' E 103°29'0 0.1
2017-Nov-09 04:56N 01°15' E 103°29'0 0.2
2017-Nov-09 04:29N 01°15' E 103°28'0 0.1
2017-Nov-09 03:23N 01°15' E 103°28'0 0.1
2017-Nov-09 02:38N 01°15' E 103°28'0 0.3
2017-Nov-09 02:26N 01°15' E 103°28'0 0.1
2017-Nov-09 01:53N 01°15' E 103°28'0 0.2
2017-Nov-09 00:35N 01°15' E 103°29'0 0.4
2017-Nov-09 00:23N 01°15' E 103°29'0 0.2
2017-Nov-08 23:53N 01°15' E 103°29'0 0.0
2017-Nov-08 23:29N 01°15' E 103°29'0 0.1
2017-Nov-08 22:41N 01°15' E 103°29'0 0.1
2017-Nov-08 22:15N 01°15' E 103°29'0 0.1
2017-Nov-08 21:59N 01°15' E 103°29'0 0.3
2017-Nov-08 21:29N 01°15' E 103°29'0 0.1
2017-Nov-08 20:54N 01°15' E 103°29'0 0.2
2017-Nov-08 20:29N 01°15' E 103°29'0 0.1
2017-Nov-08 19:50N 01°15' E 103°29'0 0.0
2017-Nov-08 19:20N 01°15' E 103°29'0 0.0
2017-Nov-08 18:44N 01°15' E 103°29'0 0.0
2017-Nov-08 18:23N 01°15' E 103°29'0 0.0
2017-Nov-08 17:59N 01°15' E 103°29'0 0.1
2017-Nov-08 17:30N 01°15' E 103°29'0 0.1
2017-Nov-08 16:53N 01°15' E 103°29'0 0.2
2017-Nov-08 16:29N 01°15' E 103°29'0 0.3
2017-Nov-08 15:41N 01°15' E 103°29'0 0.1
2017-Nov-08 15:23N 01°15' E 103°29'0 0.1
2017-Nov-08 14:59N 01°15' E 103°29'0 0.0
2017-Nov-08 14:20N 01°15' E 103°29'0 0.0
2017-Nov-08 13:50N 01°15' E 103°29'0 0.0
2017-Nov-08 13:26N 01°15' E 103°29'0 0.1
2017-Nov-08 12:59N 01°15' E 103°29'0 0.0
2017-Nov-08 12:20N 01°15' E 103°29'0 0.0
2017-Nov-08 11:59N 01°15' E 103°29'0 0.0
2017-Nov-08 11:29N 01°15' E 103°29'0 0.1
2017-Nov-08 10:53N 01°15' E 103°29'0 0.0
2017-Nov-08 10:29N 01°15' E 103°29'0 0.3
2017-Nov-08 09:59N 01°15' E 103°29'0 0.2
2017-Nov-08 09:29N 01°15' E 103°29'0 0.2
2017-Nov-08 08:42N 01°15' E 103°29'0 0.1
2017-Nov-08 08:29N 01°15' E 103°29'0 0.0
2017-Nov-08 07:50N 01°15' E 103°29'0 0.1
2017-Nov-08 07:02N 01°15' E 103°29'0 0.0
2017-Nov-08 06:59N 01°15' E 103°29'0 0.0
2017-Nov-08 06:26N 01°15' E 103°29'0 0.2
2017-Nov-08 05:59N 01°15' E 103°29'0 1.0
2017-Nov-08 05:31N 01°15' E 103°29'2 4.8
2017-Nov-08 05:00N 01°14' E 103°32'3 7.2
2017-Nov-08 04:31N 01°12' E 103°35'4 7.9
2017-Nov-08 04:01N 01°11' E 103°38'510.2
2017-Nov-08 03:31N 01°09' E 103°43'611.2
2017-Nov-08 03:00N 01°11' E 103°48'713.0
2017-Nov-08 02:31N 01°13' E 103°54'612.2
2017-Nov-08 02:00N 01°16' E 103°60'  
Track history (hours):
 
Tides and Currents Weather Stations Pressure Air Temp Water Temp Dewpoint Dewpoint Depression Visibility Wind Speed Wind Dir Waves Ship Positions

Ningbo Seal

Last reported at 2017-Nov-16 12:29 UTC. Time now 2017-Nov-23 17:05 UTC.
Position N 01°16' E 104°08'.

Length 224 m; draft 6.9 m.

Type: Cargo ship. MMSI: 477628100.

Date/timePositionNaut miles runAvg speedWind from/ knotsBaromVisibWave heightAir tempDewpointWater temp
2017-Nov-16 12:29N 01°16' E 104°08'510.0
2017-Nov-16 12:00N 01°17' E 104°03'3 5.7
2017-Nov-16 11:29N 01°17' E 104°00'0 0.0
2017-Nov-16 08:42N 01°17' E 104°00'0 0.0
2017-Nov-16 08:30N 01°17' E 104°00'0 0.0
2017-Nov-16 08:00N 01°17' E 104°00'0 0.0
2017-Nov-16 07:30N 01°17' E 104°00'0 0.1
2017-Nov-16 07:00N 01°17' E 104°00'0 0.2
2017-Nov-16 06:30N 01°18' E 104°00'0 0.0
2017-Nov-16 06:00N 01°18' E 104°00'0 0.0
2017-Nov-16 05:30N 01°18' E 104°00'0 0.0
2017-Nov-16 05:00N 01°18' E 104°00'0 0.0
2017-Nov-16 04:30N 01°18' E 104°00'0 0.2
2017-Nov-16 04:00N 01°18' E 104°00'0 0.2
2017-Nov-16 03:30N 01°18' E 104°00'0 0.1
2017-Nov-16 02:59N 01°17' E 104°00'0 0.1
2017-Nov-16 02:27N 01°17' E 104°00'0 0.0
2017-Nov-16 01:59N 01°17' E 104°00'0 0.0
2017-Nov-16 01:30N 01°17' E 104°00'0 0.0
2017-Nov-16 01:00N 01°17' E 104°00'0 0.0
2017-Nov-16 00:29N 01°17' E 104°00'0 0.0
2017-Nov-15 23:57N 01°17' E 104°00'0 0.1
2017-Nov-15 23:28N 01°17' E 104°00'0 0.0
2017-Nov-15 23:00N 01°17' E 104°00'0 0.1
2017-Nov-15 22:30N 01°17' E 104°00'2 3.1
2017-Nov-15 21:59N 01°17' E 103°59'3 5.4
2017-Nov-15 21:25N 01°15' E 103°56'1 2.1
2017-Nov-15 21:00N 01°14' E 103°56'2 4.9
2017-Nov-15 20:30N 01°12' E 103°54'4 7.4
2017-Nov-15 20:00N 01°11' E 103°51'4 9.1
2017-Nov-15 19:30N 01°09' E 103°47'612.0
2017-Nov-15 19:00N 01°05' E 103°42'510.3
2017-Nov-15 18:30N 01°04' E 103°37'610.8
2017-Nov-15 17:59N 01°07' E 103°33'510.7
2017-Nov-15 17:29N 01°13' E 103°32'3 6.7
2017-Nov-15 17:00N 01°16' E 103°33'4 8.5
2017-Nov-15 16:30N 01°20' E 103°33'0 0.3
2017-Nov-15 15:49N 01°20' E 103°33'0 0.0
2017-Nov-15 15:13N 01°20' E 103°33'0 0.0
2017-Nov-15 14:52N 01°20' E 103°33'0 0.0
2017-Nov-15 14:28N 01°20' E 103°33'0 0.0
2017-Nov-15 13:58N 01°20' E 103°33'0 0.0
2017-Nov-15 13:25N 01°20' E 103°33'0 0.0
2017-Nov-15 12:10N 01°20' E 103°33'0 0.0
2017-Nov-15 11:58N 01°20' E 103°33'0 0.0
2017-Nov-15 11:19N 01°20' E 103°33'0 0.0
2017-Nov-15 09:37N 01°20' E 103°33'0 0.0
2017-Nov-15 08:58N 01°20' E 103°33'0 0.0
2017-Nov-15 08:22N 01°20' E 103°33'0 0.0
2017-Nov-15 07:40N 01°20' E 103°33'0 0.0
2017-Nov-15 07:28N 01°20' E 103°33'0 0.0
2017-Nov-15 06:58N 01°20' E 103°33'0 0.0
2017-Nov-15 06:28N 01°20' E 103°33'0 0.0
2017-Nov-15 05:58N 01°20' E 103°33'0 0.0
2017-Nov-15 05:28N 01°20' E 103°33'0 0.0
2017-Nov-15 04:52N 01°20' E 103°33'0 0.0
2017-Nov-15 04:28N 01°20' E 103°33'0 0.0
2017-Nov-15 03:58N 01°20' E 103°33'0 0.0
2017-Nov-15 03:22N 01°20' E 103°33'0 0.0
2017-Nov-15 02:58N 01°20' E 103°33'0 0.0
2017-Nov-15 02:22N 01°20' E 103°33'0 0.0
2017-Nov-15 01:58N 01°20' E 103°33'0 0.0
2017-Nov-15 01:22N 01°20' E 103°33'0 0.0
2017-Nov-15 00:55N 01°20' E 103°33'0 0.0
2017-Nov-15 00:19N 01°20' E 103°33'0 0.0
2017-Nov-14 23:58N 01°20' E 103°33'0 0.0
2017-Nov-14 23:25N 01°20' E 103°33'0 0.0
2017-Nov-14 22:58N 01°20' E 103°33'0 0.0
2017-Nov-14 22:28N 01°20' E 103°33'0 0.0
2017-Nov-14 21:58N 01°20' E 103°33'0 0.0
2017-Nov-14 21:16N 01°20' E 103°33'0 0.0
2017-Nov-14 20:58N 01°20' E 103°33'0 0.0
2017-Nov-14 20:28N 01°20' E 103°33'0 0.0
2017-Nov-14 19:34N 01°20' E 103°33'0 0.0
2017-Nov-14 19:28N 01°20' E 103°33'0 0.0
2017-Nov-14 18:58N 01°20' E 103°33'0 0.0
2017-Nov-14 18:28N 01°20' E 103°33'0 0.0
2017-Nov-14 17:55N 01°20' E 103°33'0 0.0
2017-Nov-14 17:28N 01°20' E 103°33'0 0.0
2017-Nov-14 16:58N 01°20' E 103°33'0 0.0
2017-Nov-14 16:25N 01°20' E 103°33'0 0.0
2017-Nov-14 15:58N 01°20' E 103°33'0 0.0
2017-Nov-14 15:19N 01°20' E 103°33'0 0.0
2017-Nov-14 14:52N 01°20' E 103°33'0 0.0
2017-Nov-14 14:28N 01°20' E 103°33'0 0.0
2017-Nov-14 13:49N 01°20' E 103°33'0 0.0
2017-Nov-14 13:04N 01°20' E 103°33'0 0.0
2017-Nov-14 12:46N 01°20' E 103°33'0 0.0
2017-Nov-14 12:28N 01°20' E 103°33'0 0.0
2017-Nov-14 11:40N 01°20' E 103°33'0 0.0
2017-Nov-14 11:13N 01°20' E 103°33'0 0.0
2017-Nov-14 10:52N 01°20' E 103°33'0 0.0
2017-Nov-14 09:34N 01°20' E 103°33'0 0.0
2017-Nov-14 09:19N 01°20' E 103°33'0 0.0
2017-Nov-14 08:31N 01°20' E 103°33'0 0.0
2017-Nov-14 08:28N 01°20' E 103°33'0 0.0
2017-Nov-14 07:16N 01°20' E 103°33'0 0.0
2017-Nov-14 06:19N 01°20' E 103°33'0 0.0
2017-Nov-14 05:52N 01°20' E 103°33'0 0.0
2017-Nov-14 05:22N 01°20' E 103°33'0 0.0
2017-Nov-14 04:58N 01°20' E 103°33'0 0.0
2017-Nov-14 04:22N 01°20' E 103°33'0 0.0
2017-Nov-14 03:58N 01°20' E 103°33'0 0.0
2017-Nov-14 03:22N 01°20' E 103°33'0 0.0
2017-Nov-14 02:58N 01°20' E 103°33'0 0.0
2017-Nov-14 02:25N 01°20' E 103°33'0 0.0
2017-Nov-14 01:43N 01°20' E 103°33'0 0.0
2017-Nov-14 01:28N 01°20' E 103°33'0 0.0
2017-Nov-14 00:58N 01°20' E 103°33'0 0.0
2017-Nov-14 00:25N 01°20' E 103°33'0 0.0
2017-Nov-13 23:52N 01°20' E 103°33'0 0.0
2017-Nov-13 23:19N 01°20' E 103°33'0 0.0
2017-Nov-13 21:49N 01°20' E 103°33'0 0.0
2017-Nov-13 01:58N 01°20' E 103°33'0 0.0
2017-Nov-13 01:25N 01°20' E 103°33'0 0.0
2017-Nov-13 00:58N 01°20' E 103°33'0 0.0
2017-Nov-13 00:25N 01°20' E 103°33'0 0.0
2017-Nov-12 23:52N 01°20' E 103°33'0 0.0
2017-Nov-12 23:25N 01°20' E 103°33'0 0.0
2017-Nov-12 22:58N 01°20' E 103°33'0 0.0
2017-Nov-12 22:16N 01°20' E 103°33'0 0.0
2017-Nov-12 21:58N 01°20' E 103°33'0 0.0
2017-Nov-12 21:19N 01°20' E 103°33'0 0.0
2017-Nov-12 20:52N 01°20' E 103°33'0 0.0
2017-Nov-12 20:19N 01°20' E 103°33'0 0.0
2017-Nov-12 19:58N 01°20' E 103°33'0 0.0
2017-Nov-12 19:28N 01°20' E 103°33'0 0.0
2017-Nov-12 18:58N 01°20' E 103°33'0 0.0
2017-Nov-12 18:28N 01°20' E 103°33'0 0.0
2017-Nov-12 17:46N 01°20' E 103°33'0 0.0
2017-Nov-12 17:01N 01°20' E 103°33'0 0.0
2017-Nov-12 16:55N 01°20' E 103°33'0 0.0
2017-Nov-12 16:22N 01°20' E 103°33'0 0.0
2017-Nov-12 15:52N 01°20' E 103°33'0 0.0
2017-Nov-12 15:25N 01°20' E 103°33'0 0.0
2017-Nov-12 14:55N 01°20' E 103°33'0 0.0
2017-Nov-12 14:28N 01°20' E 103°33'0 0.0
2017-Nov-12 13:58N 01°20' E 103°33'0 0.0
2017-Nov-12 13:25N 01°20' E 103°33'0 0.0
2017-Nov-12 12:55N 01°20' E 103°33'0 0.0
2017-Nov-12 12:19N 01°20' E 103°33'0 0.0
2017-Nov-12 11:58N 01°20' E 103°33'0 0.0
2017-Nov-12 10:52N 01°20' E 103°33'0 0.0
2017-Nov-12 10:19N 01°20' E 103°33'0 0.0
2017-Nov-12 09:25N 01°20' E 103°33'0 0.0
2017-Nov-12 08:58N 01°20' E 103°33'0 0.0
2017-Nov-12 08:16N 01°20' E 103°33'0 0.0
2017-Nov-12 07:52N 01°20' E 103°33'0 0.0
2017-Nov-12 07:28N 01°20' E 103°33'0 0.0
2017-Nov-12 06:55N 01°20' E 103°33'0 0.0
2017-Nov-12 06:22N 01°20' E 103°33'0 0.0
2017-Nov-12 05:49N 01°20' E 103°33'0 0.0
2017-Nov-12 05:28N 01°20' E 103°33'0 0.0
2017-Nov-12 04:52N 01°20' E 103°33'0 0.0
2017-Nov-12 04:13N 01°20' E 103°33'0 0.0
2017-Nov-12 03:58N 01°20' E 103°33'0 0.0
2017-Nov-12 03:25N 01°20' E 103°33'0 0.0
2017-Nov-12 02:58N 01°20' E 103°33'0 0.0
2017-Nov-12 02:22N 01°20' E 103°33'0 0.0
2017-Nov-12 01:49N 01°20' E 103°33'0 0.0
2017-Nov-12 01:28N 01°20' E 103°33'0 0.0
2017-Nov-12 00:55N 01°20' E 103°33'0 0.2
2017-Nov-12 00:30N 01°20' E 103°33'2 3.1
2017-Nov-12 00:00N 01°18' E 103°33'4 8.5
2017-Nov-11 23:30N 01°15' E 103°32'3 5.3
2017-Nov-11 22:58N 01°15' E 103°29'0 0.6
2017-Nov-11 22:20N 01°15' E 103°29'0 0.1
2017-Nov-11 21:59N 01°15' E 103°29'0 0.0
2017-Nov-11 21:29N 01°15' E 103°29'0 0.1
2017-Nov-11 20:38N 01°15' E 103°29'0 0.1
2017-Nov-11 20:29N 01°15' E 103°29'0 0.1
2017-Nov-11 19:23N 01°15' E 103°29'0 0.3
2017-Nov-11 18:59N 01°15' E 103°28'0 0.1
2017-Nov-11 18:11N 01°15' E 103°28'0 0.0
2017-Nov-11 17:56N 01°15' E 103°28'0 0.0
2017-Nov-11 17:23N 01°15' E 103°28'0 0.0
2017-Nov-11 16:56N 01°15' E 103°28'0 0.0
2017-Nov-11 16:08N 01°15' E 103°28'0 0.0
2017-Nov-11 15:56N 01°15' E 103°28'0 0.0
2017-Nov-11 15:23N 01°15' E 103°28'0 0.0
2017-Nov-11 14:50N 01°15' E 103°28'0 0.0
2017-Nov-11 14:23N 01°15' E 103°28'0 0.0
2017-Nov-11 13:50N 01°15' E 103°28'0 0.0
2017-Nov-11 13:29N 01°15' E 103°28'0 0.0
2017-Nov-11 11:56N 01°15' E 103°28'0 0.0
2017-Nov-11 11:17N 01°15' E 103°28'0 0.0
2017-Nov-11 10:35N 01°15' E 103°28'0 0.0
2017-Nov-11 10:26N 01°15' E 103°28'0 0.0
2017-Nov-11 08:56N 01°15' E 103°28'0 0.0
2017-Nov-11 08:23N 01°15' E 103°28'0 0.0
2017-Nov-11 07:56N 01°15' E 103°28'0 0.1
2017-Nov-11 07:23N 01°15' E 103°28'0 0.1
2017-Nov-11 06:53N 01°15' E 103°28'0 0.0
2017-Nov-11 06:29N 01°15' E 103°28'0 0.1
2017-Nov-11 05:47N 01°15' E 103°28'0 0.2
2017-Nov-11 05:29N 01°15' E 103°28'0 0.0
2017-Nov-11 04:44N 01°15' E 103°28'0 0.0
2017-Nov-11 04:23N 01°15' E 103°28'0 0.0
2017-Nov-11 03:53N 01°15' E 103°28'0 0.0
2017-Nov-11 03:14N 01°15' E 103°28'0 0.1
2017-Nov-11 02:56N 01°15' E 103°28'0 0.0
2017-Nov-11 02:23N 01°15' E 103°28'0 0.0
2017-Nov-11 01:44N 01°15' E 103°28'0 0.0
2017-Nov-11 01:20N 01°15' E 103°28'0 0.2
2017-Nov-11 00:53N 01°15' E 103°28'0 0.1
2017-Nov-11 00:26N 01°15' E 103°28'0 0.2
2017-Nov-10 23:53N 01°15' E 103°29'0 0.2
2017-Nov-10 23:29N 01°15' E 103°29'0 0.1
2017-Nov-10 22:56N 01°15' E 103°29'0 0.1
2017-Nov-10 22:17N 01°15' E 103°29'0 0.0
2017-Nov-10 21:56N 01°15' E 103°29'0 0.0
2017-Nov-10 21:11N 01°15' E 103°29'0 0.1
2017-Nov-10 20:56N 01°15' E 103°29'0 0.1
2017-Nov-10 20:20N 01°15' E 103°29'0 0.0
2017-Nov-10 19:44N 01°15' E 103°29'0 0.1
2017-Nov-10 19:14N 01°15' E 103°29'0 0.2
2017-Nov-10 18:02N 01°15' E 103°29'0 0.2
2017-Nov-10 17:56N 01°15' E 103°29'0 0.1
2017-Nov-10 17:29N 01°15' E 103°28'0 0.0
2017-Nov-10 16:50N 01°15' E 103°28'0 0.0
2017-Nov-10 16:29N 01°15' E 103°28'0 0.1
2017-Nov-10 15:53N 01°15' E 103°28'0 0.1
2017-Nov-10 15:26N 01°15' E 103°28'0 0.1
2017-Nov-10 14:53N 01°15' E 103°28'0 0.2
2017-Nov-10 14:29N 01°15' E 103°28'0 0.0
2017-Nov-10 13:50N 01°15' E 103°28'0 0.0
2017-Nov-10 12:56N 01°15' E 103°28'0 0.0
2017-Nov-10 12:17N 01°15' E 103°28'0 0.0
2017-Nov-10 11:59N 01°15' E 103°28'0 0.1
2017-Nov-10 08:02N 01°15' E 103°29'0 0.0
2017-Nov-10 07:32N 01°15' E 103°29'0 0.1
2017-Nov-10 04:50N 01°15' E 103°28'0 0.0
2017-Nov-10 04:23N 01°15' E 103°28'0 0.0
2017-Nov-10 02:21N 01°15' E 103°28'0 0.0
2017-Nov-10 01:38N 01°15' E 103°28'0 0.0
2017-Nov-10 01:26N 01°15' E 103°28'0 0.0
2017-Nov-10 00:56N 01°15' E 103°28'0 0.0
2017-Nov-10 00:29N 01°15' E 103°28'0 0.0
2017-Nov-09 23:59N 01°15' E 103°28'0 0.2
2017-Nov-09 22:44N 01°15' E 103°29'0 0.2
2017-Nov-09 22:26N 01°15' E 103°29'0 0.1
2017-Nov-09 21:53N 01°15' E 103°29'0 0.1
2017-Nov-09 21:26N 01°15' E 103°29'0 0.1
2017-Nov-09 20:44N 01°15' E 103°29'0 0.1
2017-Nov-09 20:26N 01°15' E 103°29'0 0.1
2017-Nov-09 19:56N 01°15' E 103°29'0 0.1
2017-Nov-09 19:17N 01°15' E 103°29'0 0.1
2017-Nov-09 18:47N 01°15' E 103°29'0 0.2
2017-Nov-09 18:23N 01°15' E 103°29'0 0.0
2017-Nov-09 17:53N 01°15' E 103°29'0 0.0
2017-Nov-09 17:29N 01°15' E 103°29'0 0.2
2017-Nov-09 16:53N 01°15' E 103°29'0 0.4
2017-Nov-09 16:30N 01°15' E 103°28'0 0.2
2017-Nov-09 15:50N 01°15' E 103°28'0 0.0
2017-Nov-09 15:29N 01°15' E 103°28'0 0.0
2017-Nov-09 14:47N 01°15' E 103°28'0 0.1
2017-Nov-09 14:26N 01°15' E 103°28'0 0.0
2017-Nov-09 13:29N 01°15' E 103°28'0 0.1
2017-Nov-09 12:59N 01°15' E 103°28'0 0.1
2017-Nov-09 12:26N 01°15' E 103°28'0 0.1
2017-Nov-09 11:53N 01°15' E 103°28'0 0.1
2017-Nov-09 11:17N 01°15' E 103°28'0 0.1
2017-Nov-09 10:50N 01°15' E 103°28'0 0.1
2017-Nov-09 10:26N 01°15' E 103°28'0 0.2
2017-Nov-09 09:53N 01°15' E 103°29'0 0.1
2017-Nov-09 09:11N 01°15' E 103°29'0 0.1
2017-Nov-09 08:41N 01°15' E 103°29'0 0.0
2017-Nov-09 08:26N 01°15' E 103°29'0 0.1
2017-Nov-09 07:47N 01°15' E 103°29'0 0.1
2017-Nov-09 07:12N 01°15' E 103°29'0 0.0
2017-Nov-09 06:50N 01°15' E 103°29'0 0.0
2017-Nov-09 05:53N 01°15' E 103°29'0 0.2
2017-Nov-09 05:08N 01°15' E 103°29'0 0.1
2017-Nov-09 04:56N 01°15' E 103°29'0 0.2
2017-Nov-09 04:29N 01°15' E 103°28'0 0.1
2017-Nov-09 03:23N 01°15' E 103°28'0 0.1
2017-Nov-09 02:38N 01°15' E 103°28'0 0.3
2017-Nov-09 02:26N 01°15' E 103°28'0 0.1
2017-Nov-09 01:53N 01°15' E 103°28'0 0.2
2017-Nov-09 00:35N 01°15' E 103°29'0 0.4
2017-Nov-09 00:23N 01°15' E 103°29'0 0.2
2017-Nov-08 23:53N 01°15' E 103°29'0 0.0
2017-Nov-08 23:29N 01°15' E 103°29'0 0.1
2017-Nov-08 22:41N 01°15' E 103°29'0 0.1
2017-Nov-08 22:15N 01°15' E 103°29'0 0.1
2017-Nov-08 21:59N 01°15' E 103°29'0 0.3
2017-Nov-08 21:29N 01°15' E 103°29'0 0.1
2017-Nov-08 20:54N 01°15' E 103°29'0 0.2
2017-Nov-08 20:29N 01°15' E 103°29'0 0.1
2017-Nov-08 19:50N 01°15' E 103°29'0 0.0
2017-Nov-08 19:20N 01°15' E 103°29'0 0.0
2017-Nov-08 18:44N 01°15' E 103°29'0 0.0
2017-Nov-08 18:23N 01°15' E 103°29'0 0.0
2017-Nov-08 17:59N 01°15' E 103°29'0 0.1
2017-Nov-08 17:30N 01°15' E 103°29'0 0.1
2017-Nov-08 16:53N 01°15' E 103°29'0 0.2
2017-Nov-08 16:29N 01°15' E 103°29'0 0.3
2017-Nov-08 15:41N 01°15' E 103°29'0 0.1
2017-Nov-08 15:23N 01°15' E 103°29'0 0.1
2017-Nov-08 14:59N 01°15' E 103°29'0 0.0
2017-Nov-08 14:20N 01°15' E 103°29'0 0.0
2017-Nov-08 13:50N 01°15' E 103°29'0 0.0
2017-Nov-08 13:26N 01°15' E 103°29'0 0.1
2017-Nov-08 12:59N 01°15' E 103°29'0 0.0
2017-Nov-08 12:20N 01°15' E 103°29'0 0.0
2017-Nov-08 11:59N 01°15' E 103°29'0 0.0
2017-Nov-08 11:29N 01°15' E 103°29'0 0.1
2017-Nov-08 10:53N 01°15' E 103°29'0 0.0
2017-Nov-08 10:29N 01°15' E 103°29'0 0.3
2017-Nov-08 09:59N 01°15' E 103°29'0 0.2
2017-Nov-08 09:29N 01°15' E 103°29'0 0.2
2017-Nov-08 08:42N 01°15' E 103°29'0 0.1
2017-Nov-08 08:29N 01°15' E 103°29'0 0.0
2017-Nov-08 07:50N 01°15' E 103°29'0 0.1
2017-Nov-08 07:02N 01°15' E 103°29'0 0.0
2017-Nov-08 06:59N 01°15' E 103°29'0 0.0
2017-Nov-08 06:26N 01°15' E 103°29'0 0.2
2017-Nov-08 05:59N 01°15' E 103°29'0 1.0
2017-Nov-08 05:31N 01°15' E 103°29'2 4.8
2017-Nov-08 05:00N 01°14' E 103°32'3 7.2
2017-Nov-08 04:31N 01°12' E 103°35'4 7.9
2017-Nov-08 04:01N 01°11' E 103°38'510.2
2017-Nov-08 03:31N 01°09' E 103°43'611.2
2017-Nov-08 03:00N 01°11' E 103°48'713.0
2017-Nov-08 02:31N 01°13' E 103°54'612.2
2017-Nov-08 02:00N 01°16' E 103°60'  

Dump ship's entire track history